Time;durP1;ratioP1;P1;durP2;ratioP2;P2;SDS_P1;SDS_P2;PMS_P1;PMS_P2;Temp;Humidity;BMP_temperature;BMP_pressure;BME280_temperature;BME280_humidity;BME280_pressure;Samples;Min_cycle;Max_cycle;Signal;HPM_P1;HPM_P2
2023/04/11 00:02:17;;;;;;;41.95;6.30;;;;;;;;;;5031431;28;25087;-77
2023/04/11 00:04:43;;;;;;;46.28;6.47;;;;;;;;;;5027609;28;25102;-75
2023/04/11 00:07:09;;;;;;;37.65;6.32;;;;;;;;;;5008475;28;25055;-75
2023/04/11 00:09:35;;;;;;;42.10;6.07;;;10.70;99.90;;;;;;5033424;28;25085;-77
2023/04/11 00:12:01;;;;;;;29.60;5.97;;;;;;;;;;5025331;28;25064;-75
2023/04/11 00:14:27;;;;;;;34.85;5.97;;;;;;;;;;5024043;28;25104;-73
2023/04/11 00:16:56;;;;;;;26.25;5.97;;;;;;;;;;5023243;28;25088;-74
2023/04/11 00:19:22;;;;;;;43.38;5.97;;;;;;;;;;5025272;28;25071;-74
2023/04/11 00:21:49;;;;;;;32.55;4.97;;;;;;;;;;5018893;28;25083;-72
2023/04/11 00:24:15;;;;;;;46.85;7.60;;;;;;;;;;5016938;28;25050;-73
2023/04/11 00:26:41;;;;;;;41.00;5.93;;;;;;;;;;5020571;28;25074;-71
2023/04/11 00:29:07;;;;;;;37.95;6.90;;;;;;;;;;5017504;28;25072;-72
2023/04/11 00:31:34;;;;;;;35.15;5.50;;;;;;;;;;5016617;28;25088;-73
2023/04/11 00:34:00;;;;;;;28.55;5.30;;;;;;;;;;5010203;28;25083;-75
2023/04/11 00:36:26;;;;;;;25.50;4.15;;;;;;;;;;5021739;28;25062;-72
2023/04/11 00:38:53;;;;;;;34.13;5.93;;;;;;;;;;5020001;28;25066;-73
2023/04/11 00:41:20;;;;;;;22.85;4.15;;;;;;;;;;5016333;28;25067;-74
2023/04/11 00:43:46;;;;;;;24.45;4.80;;;;;;;;;;5014011;28;25085;-74
2023/04/11 00:46:13;;;;;;;25.45;5.97;;;;;;;;;;5008846;28;25064;-72
2023/04/11 00:48:40;;;;;;;25.10;4.57;;;;;;;;;;5017485;28;25065;-73
2023/04/11 00:51:06;;;;;;;21.02;3.92;;;;;;;;;;5016507;28;25064;-72
2023/04/11 00:53:32;;;;;;;33.35;4.88;;;;;;;;;;5012272;28;25099;-77
2023/04/11 00:56:01;;;;;;;36.13;4.78;;;;;;;;;;4996567;28;25082;-70
2023/04/11 00:58:27;;;;;;;24.23;4.13;;;;;;;;;;5014870;28;25105;-75
2023/04/11 01:00:54;;;;;;;31.27;4.70;;;;;;;;;;5011177;28;25107;-71
2023/04/11 01:03:21;;;;;;;27.15;4.38;;;;;;;;;;5016252;28;25076;-70
2023/04/11 01:05:48;;;;;;;24.70;3.20;;;;;;;;;;4995051;28;25090;-74
2023/04/11 01:08:15;;;;;;;25.75;3.35;;;;;;;;;;4990971;28;25081;-71
2023/04/11 01:10:41;;;;;;;21.33;3.97;;;;;;;;;;5008218;28;25084;-74
2023/04/11 01:13:08;;;;;;;21.02;3.70;;;;;;;;;;5016538;28;25131;-73
2023/04/11 01:15:34;;;;;;;23.23;3.15;;;;;;;;;;5015086;28;25071;-72
2023/04/11 01:18:00;;;;;;;21.40;3.67;;;;;;;;;;5013907;28;25084;-73
2023/04/11 01:20:27;;;;;;;23.90;3.42;;;;;;;;;;5016002;28;25061;-74
2023/04/11 01:22:53;;;;;;;18.85;3.63;;;;;;;;;;5014086;28;25057;-73
2023/04/11 01:25:21;;;;;;;22.15;4.50;;;;;;;;;;5012396;28;25068;-74
2023/04/11 01:27:47;;;;;;;23.27;3.67;;;;;;;;;;5011139;28;25070;-75
2023/04/11 01:30:13;;;;;;;19.90;3.10;;;;;;;;;;4994671;28;25089;-74
2023/04/11 01:32:39;;;;;;;16.38;3.78;;;;;;;;;;5016831;28;25069;-72
2023/04/11 01:35:06;;;;;;;12.98;2.65;;;;;;;;;;4996773;28;25071;-72
2023/04/11 01:37:32;;;;;;;14.68;2.55;;;;;;;;;;4991925;28;25174;-72
2023/04/11 01:39:58;;;;;;;20.45;2.67;;;;;;;;;;5013062;28;25104;-76
2023/04/11 01:42:25;;;;;;;18.35;3.63;;;;;;;;;;5008286;28;25080;-73
2023/04/11 01:44:51;;;;;;;25.42;3.88;;;;;;;;;;5005425;28;25067;-73
2023/04/11 01:47:17;;;;;;;15.60;2.80;;;;;;;;;;5014500;28;25054;-73
2023/04/11 01:49:43;;;;;;;26.90;3.50;;;;;;;;;;5015167;28;25166;-73
2023/04/11 01:52:09;;;;;;;15.77;6.15;;;;;;;;;;5000478;28;25065;-73
2023/04/11 01:54:35;;;;;;;17.30;3.13;;;;;;;;;;5011294;28;25060;-73
2023/04/11 01:57:01;;;;;;;26.20;5.13;;;;;;;;;;5021537;28;25073;-75
2023/04/11 01:59:27;;;;;;;18.73;3.03;;;;;;;;;;5021534;28;25155;-74
2023/04/11 02:01:53;;;;;;;12.60;2.58;;;;;;;;;;5011488;28;25076;-72
2023/04/11 02:04:19;;;;;;;23.48;3.78;;;;;;;;;;5017919;28;25060;-73
2023/04/11 02:06:45;;;;;;;17.55;3.42;;;;;;;;;;5005787;28;25074;-74
2023/04/11 02:09:11;;;;;;;14.27;3.35;;;;;;;;;;5020058;28;25063;-73
2023/04/11 02:11:37;;;;;;;24.42;3.50;;;;;;;;;;5015350;28;25070;-73
2023/04/11 02:14:05;;;;;;;17.48;2.60;;;;;;;;;;5018836;28;25092;-72
2023/04/11 02:16:32;;;;;;;11.98;2.75;;;;;;;;;;5015403;28;25055;-74
2023/04/11 02:18:58;;;;;;;13.70;2.53;;;;;;;;;;5017580;28;25061;-72
2023/04/11 02:21:24;;;;;;;8.00;2.20;;;;;;;;;;5012623;28;25093;-74
2023/04/11 02:23:50;;;;;;;9.95;3.08;;;;;;;;;;5016793;28;25135;-71
2023/04/11 02:26:16;;;;;;;15.05;2.20;;;;;;;;;;5012678;28;25137;-74
2023/04/11 02:28:42;;;;;;;10.73;1.80;;;;;;;;;;5005303;28;25064;-74
2023/04/11 02:31:08;;;;;;;9.88;1.95;;;;;;;;;;5006546;28;25086;-77
2023/04/11 02:33:34;;;;;;;8.48;1.85;;;9.40;99.90;;;;;;5007454;28;25075;-72
2023/04/11 02:36:00;;;;;;;13.20;2.22;;;;;;;;;;5011732;28;25113;-74
2023/04/11 02:38:25;;;;;;;9.85;1.88;;;9.30;99.90;;;;;;5008052;28;25075;-76
2023/04/11 02:40:51;;;;;;;14.43;2.13;;;;;;;;;;5006466;28;25087;-74
2023/04/11 02:43:17;;;;;;;6.28;1.83;;;;;;;;;;5012382;28;25138;-74
2023/04/11 02:45:43;;;;;;;11.98;1.67;;;;;;;;;;4986729;28;25131;-72
2023/04/11 02:48:09;;;;;;;13.27;2.42;;;9.30;99.90;;;;;;5006532;28;25068;-73
2023/04/11 02:50:35;;;;;;;10.98;2.30;;;;;;;;;;5007417;28;25118;-74
2023/04/11 02:53:01;;;;;;;14.60;2.10;;;;;;;;;;5013119;28;25097;-73
2023/04/11 02:55:27;;;;;;;15.90;1.80;;;;;;;;;;5009750;28;25081;-73
2023/04/11 02:57:53;;;;;;;22.25;2.88;;;;;;;;;;5015343;28;25081;-74
2023/04/11 03:00:20;;;;;;;12.73;3.47;;;9.30;99.90;;;;;;5011069;28;25145;-74
2023/04/11 03:02:46;;;;;;;10.85;2.40;;;;;;;;;;4987145;28;25100;-74
2023/04/11 03:05:11;;;;;;;9.40;2.03;;;9.30;99.90;;;;;;5012132;28;25083;-74
2023/04/11 03:07:39;;;;;;;14.18;2.38;;;9.30;99.90;;;;;;5011650;28;25105;-73
2023/04/11 03:10:05;;;;;;;16.33;1.92;;;;;;;;;;5011093;28;25093;-71
2023/04/11 03:12:31;;;;;;;14.20;2.60;;;;;;;;;;5015981;28;25056;-72
2023/04/11 03:14:57;;;;;;;10.13;1.75;;;;;;;;;;5010782;28;25162;-73
2023/04/11 03:17:23;;;;;;;17.48;2.38;;;;;;;;;;5012267;28;25061;-73
2023/04/11 03:19:49;;;;;;;13.02;2.55;;;;;;;;;;5009332;28;25149;-72
2023/04/11 03:22:16;;;;;;;16.05;3.20;;;9.20;99.90;;;;;;5005775;28;25066;-73
2023/04/11 03:24:41;;;;;;;8.80;2.33;;;9.10;99.90;;;;;;5003321;28;25075;-74
2023/04/11 03:27:07;;;;;;;11.88;2.13;;;;;;;;;;5006872;28;25067;-75
2023/04/11 03:29:33;;;;;;;6.22;1.73;;;;;;;;;;5004287;28;25077;-76
2023/04/11 03:31:59;;;;;;;15.05;2.60;;;9.20;99.90;;;;;;5013907;28;25109;-74
2023/04/11 03:34:25;;;;;;;22.17;2.17;;;;;;;;;;4993864;28;25114;-74
2023/04/11 03:36:51;;;;;;;11.75;2.63;;;;;;;;;;4993122;28;25106;-73
2023/04/11 03:39:18;;;;;;;13.07;2.75;;;;;;;;;;5012981;28;25075;-72
2023/04/11 03:41:44;;;;;;;8.90;2.53;;;;;;;;;;5017450;28;25063;-74
2023/04/11 03:44:10;;;;;;;21.55;2.28;;;;;;;;;;5016317;28;25074;-76
2023/04/11 03:46:36;;;;;;;14.27;2.00;;;;;;;;;;5008806;28;25080;-75
2023/04/11 03:49:03;;;;;;;13.50;2.60;;;9.20;99.90;;;;;;5011540;28;25077;-74
2023/04/11 03:51:30;;;;;;;18.15;3.20;;;;;;;;;;5013021;28;25165;-74
2023/04/11 03:53:56;;;;;;;13.07;2.17;;;;;;;;;;5018848;28;25148;-75
2023/04/11 03:56:22;;;;;;;8.45;2.58;;;;;;;;;;5013816;28;25155;-73
2023/04/11 03:58:48;;;;;;;9.63;1.67;;;;;;;;;;5013407;28;25068;-74
2023/04/11 04:01:14;;;;;;;13.32;1.60;;;;;;;;;;5017713;28;25085;-74
2023/04/11 04:03:40;;;;;;;14.25;2.28;;;;;;;;;;5017768;28;25296;-74
2023/04/11 04:06:06;;;;;;;8.88;1.63;;;;;;;;;;4990981;28;25090;-77
2023/04/11 04:08:32;;;;;;;9.32;1.92;;;;;;;;;;5013976;28;25055;-76
2023/04/11 04:10:59;;;;;;;17.15;2.00;;;;;;;;;;5012867;28;25058;-74
2023/04/11 04:13:27;;;;;;;15.70;2.22;;;;;;;;;;5010482;28;25091;-73
2023/04/11 04:15:53;;;;;;;11.73;2.60;;;;;;;;;;5020078;28;25060;-76
2023/04/11 04:18:19;;;;;;;16.42;1.98;;;;;;;;;;5016023;28;25076;-74
2023/04/11 04:20:46;;;;;;;10.25;1.88;;;;;;;;;;4991324;28;25077;-74
2023/04/11 04:23:16;;;;;;;9.90;1.83;;;;;;;;;;4997724;28;25086;-73
2023/04/11 04:25:42;;;;;;;8.20;1.60;;;;;;;;;;5000739;28;25085;-75
2023/04/11 04:28:08;;;;;;;4.05;1.40;;;;;;;;;;5008810;28;25055;-74
2023/04/11 04:30:36;;;;;;;3.60;1.30;;;;;;;;;;5015809;28;25119;-73
2023/04/11 04:33:02;;;;;;;14.95;2.13;;;;;;;;;;4996206;28;25151;-75
2023/04/11 04:35:28;;;;;;;6.07;2.47;;;;;;;;;;5008087;28;25080;-75
2023/04/11 04:37:54;;;;;;;13.15;2.40;;;;;;;;;;5015963;28;25068;-73
2023/04/11 04:40:21;;;;;;;14.95;1.98;;;;;;;;;;5004984;28;25098;-75
2023/04/11 04:42:57;;;;;;;13.88;2.03;;;;;;;;;;5012423;28;25095;-76
2023/04/11 04:45:24;;;;;;;14.43;2.20;;;;;;;;;;5001279;28;25075;-74
2023/04/11 04:47:50;;;;;;;8.90;2.17;;;;;;;;;;5003873;28;25145;-74
2023/04/11 04:50:16;;;;;;;6.88;2.17;;;;;;;;;;4997730;28;25106;-76
2023/04/11 04:52:42;;;;;;;10.68;2.30;;;;;;;;;;5013094;28;25053;-75
2023/04/11 04:55:08;;;;;;;18.35;2.58;;;8.70;99.90;;;;;;5002249;28;25082;-77
2023/04/11 04:57:34;;;;;;;6.60;1.83;;;;;;;;;;5005988;28;25057;-76
2023/04/11 05:00:00;;;;;;;11.10;2.30;;;;;;;;;;4999369;28;25073;-73
2023/04/11 05:02:26;;;;;;;12.02;2.63;;;;;;;;;;4996792;28;25061;-75
2023/04/11 05:04:53;;;;;;;8.43;2.15;;;;;;;;;;5005044;28;25110;-75
2023/04/11 05:07:19;;;;;;;20.58;2.75;;;;;;;;;;5010579;28;25065;-73
2023/04/11 05:09:45;;;;;;;11.98;2.05;;;;;;;;;;5006965;28;25070;-73
2023/04/11 05:12:12;;;;;;;8.25;1.60;;;;;;;;;;4996225;28;25112;-75
2023/04/11 05:14:38;;;;;;;8.50;2.38;;;;;;;;;;5004384;28;25052;-73
2023/04/11 05:17:04;;;;;;;10.38;2.17;;;;;;;;;;4997497;28;25075;-75
2023/04/11 05:19:31;;;;;;;19.25;2.47;;;;;;;;;;5001586;28;25065;-75
2023/04/11 05:21:57;;;;;;;12.77;2.22;;;;;;;;;;5008798;28;25154;-76
2023/04/11 05:24:23;;;;;;;12.70;2.90;;;;;;;;;;5004122;28;25078;-74
2023/04/11 05:26:49;;;;;;;18.42;1.98;;;;;;;;;;5015599;28;25098;-73
2023/04/11 05:29:15;;;;;;;6.32;2.15;;;;;;;;;;5015495;28;25068;-73
2023/04/11 05:31:41;;;;;;;11.07;2.55;;;;;;;;;;5004293;28;25073;-74
2023/04/11 05:34:09;;;;;;;10.10;2.03;;;8.80;99.90;;;;;;5010770;28;25076;-73
2023/04/11 05:36:35;;;;;;;7.85;1.65;;;;;;;;;;4984624;28;25082;-76
2023/04/11 05:39:03;;;;;;;16.65;2.40;;;;;;;;;;5022614;28;25049;-75
2023/04/11 05:41:29;;;;;;;14.15;2.05;;;;;;;;;;5021012;28;25057;-77
2023/04/11 05:43:55;;;;;;;14.30;3.35;;;;;;;;;;5025149;28;25061;-75
2023/04/11 05:46:21;;;;;;;13.38;2.05;;;;;;;;;;5006241;28;25083;-74
2023/04/11 05:48:47;;;;;;;12.07;2.35;;;;;;;;;;5010241;28;25060;-76
2023/04/11 05:51:13;;;;;;;18.38;3.25;;;;;;;;;;5006838;28;25176;-75
2023/04/11 05:53:39;;;;;;;15.23;2.28;;;;;;;;;;5012325;28;25067;-75
2023/04/11 05:56:05;;;;;;;13.00;3.15;;;;;;;;;;5004929;28;25065;-75
2023/04/11 05:58:32;;;;;;;21.60;3.17;;;;;;;;;;4999481;28;25112;-74
2023/04/11 06:00:59;;;;;;;20.20;3.20;;;;;;;;;;5006154;28;25057;-73
2023/04/11 06:03:25;;;;;;;15.90;2.70;;;;;;;;;;4988316;28;25055;-75
2023/04/11 06:05:52;;;;;;;20.67;2.78;;;;;;;;;;4990793;28;25057;-75
2023/04/11 06:08:18;;;;;;;18.48;2.45;;;;;;;;;;5003620;28;25051;-75
2023/04/11 06:10:44;;;;;;;16.33;2.78;;;;;;;;;;4993310;28;25062;-76
2023/04/11 06:13:10;;;;;;;8.82;2.38;;;;;;;;;;5009919;28;25059;-74
2023/04/11 06:15:36;;;;;;;26.63;2.53;;;;;;;;;;5007138;28;25063;-75
2023/04/11 06:18:02;;;;;;;15.75;3.30;;;;;;;;;;4986595;28;25075;-74
2023/04/11 06:20:28;;;;;;;17.73;3.28;;;;;;;;;;5008904;28;25160;-74
2023/04/11 06:22:55;;;;;;;15.07;2.80;;;;;;;;;;4999415;28;25136;-75
2023/04/11 06:25:23;;;;;;;19.90;2.55;;;;;;;;;;5007821;28;25078;-75
2023/04/11 06:27:50;;;;;;;19.15;2.92;;;;;;;;;;5006801;28;25057;-76
2023/04/11 06:30:16;;;;;;;15.73;2.58;;;;;;;;;;5015492;28;25178;-74
2023/04/11 06:32:42;;;;;;;20.42;2.97;;;;;;;;;;5005571;28;25107;-74
2023/04/11 06:35:08;;;;;;;17.30;2.20;;;;;;;;;;4997044;28;25054;-75
2023/04/11 06:37:34;;;;;;;11.35;2.42;;;;;;;;;;5002149;28;25091;-76
2023/04/11 06:40:00;;;;;;;15.23;2.28;;;;;;;;;;5009598;28;25088;-75
2023/04/11 06:42:26;;;;;;;13.02;2.40;;;;;;;;;;5010807;28;25064;-75
2023/04/11 06:44:52;;;;;;;12.20;3.03;;;;;;;;;;5009844;28;25056;-74
2023/04/11 06:47:19;;;;;;;10.77;2.88;;;;;;;;;;5021852;28;25062;-76
2023/04/11 06:49:45;;;;;;;8.20;2.00;;;;;;;;;;5027897;28;25069;-75
2023/04/11 06:52:11;;;;;;;15.57;2.20;;;;;;;;;;5022488;28;25083;-76
2023/04/11 06:54:37;;;;;;;10.10;2.50;;;;;;;;;;5007442;28;25067;-76
2023/04/11 06:57:03;;;;;;;15.23;2.50;;;;;;;;;;5028054;28;25085;-76
2023/04/11 06:59:29;;;;;;;18.45;2.42;;;;;;;;;;5029881;28;25084;-76
2023/04/11 07:01:55;;;;;;;16.02;2.95;;;;;;;;;;5027915;28;25057;-74
2023/04/11 07:04:21;;;;;;;13.77;2.85;;;;;;;;;;5030764;28;25056;-75
2023/04/11 07:06:47;;;;;;;18.77;2.50;;;;;;;;;;5033055;28;25078;-77
2023/04/11 07:09:13;;;;;;;7.80;2.33;;;;;;;;;;5032633;28;25066;-74
2023/04/11 07:11:39;;;;;;;13.23;3.03;;;;;;;;;;5031929;28;25081;-78
2023/04/11 07:14:05;;;;;;;17.63;2.42;;;;;;;;;;5033777;28;25077;-75
2023/04/11 07:16:31;;;;;;;17.77;4.30;;;;;;;;;;5030118;28;25087;-75
2023/04/11 07:19:02;;;;;;;13.77;2.33;;;;;;;;;;5025885;28;25106;-75
2023/04/11 07:21:29;;;;;;;14.00;3.13;;;;;;;;;;5009651;28;25122;-75
2023/04/11 07:23:55;;;;;;;13.43;2.88;;;;;;;;;;4996153;28;25073;-73
2023/04/11 07:26:22;;;;;;;11.00;2.58;;;;;;;;;;5009558;28;25060;-75
2023/04/11 07:28:48;;;;;;;19.75;2.58;;;;;;;;;;4998731;28;25131;-76
2023/04/11 07:31:16;;;;;;;6.43;2.50;;;;;;;;;;5004938;28;25121;-77
2023/04/11 07:33:43;;;;;;;9.52;2.05;;;;;;;;;;5001524;28;25088;-76
2023/04/11 07:36:09;;;;;;;11.88;2.15;;;;;;;;;;5012117;28;25075;-74
2023/04/11 07:38:36;;;;;;;12.82;2.92;;;;;;;;;;5007941;28;25076;-72
2023/04/11 07:41:03;;;;;;;13.88;2.65;;;;;;;;;;5008921;28;25054;-74
2023/04/11 07:43:29;;;;;;;13.93;2.05;;;;;;;;;;5001740;28;25060;-75
2023/04/11 07:45:56;;;;;;;12.75;1.98;;;;;;;;;;5009384;28;25108;-76
2023/04/11 07:48:22;;;;;;;11.73;2.08;;;;;;;;;;5005231;28;25068;-71
2023/04/11 07:50:48;;;;;;;13.80;3.35;;;;;;;;;;5006567;28;25139;-72
2023/04/11 07:53:15;;;;;;;18.17;2.85;;;;;;;;;;5002961;28;25070;-74
2023/04/11 07:55:41;;;;;;;19.30;2.45;;;;;;;;;;5003196;28;25058;-76
2023/04/11 07:58:07;;;;;;;6.50;1.95;;;;;;;;;;5008774;28;25051;-75
2023/04/11 08:00:33;;;;;;;9.63;2.05;;;;;;;;;;5006929;28;25086;-75
2023/04/11 08:03:03;;;;;;;8.73;1.70;;;;;;;;;;5000839;28;25068;-77
2023/04/11 08:05:29;;;;;;;9.32;1.90;;;;;;;;;;4998872;28;25102;-74
2023/04/11 08:07:55;;;;;;;8.95;2.08;;;;;;;;;;4992105;28;25155;-75
2023/04/11 08:10:21;;;;;;;8.68;2.22;;;;;;;;;;5000870;28;25078;-77
2023/04/11 08:12:48;;;;;;;11.38;1.50;;;;;;;;;;5001728;28;25145;-76
2023/04/11 08:15:13;;;;;;;18.77;2.33;;;10.20;99.90;;;;;;5006945;28;25109;-76
2023/04/11 08:17:40;;;;;;;7.63;1.55;;;;;;;;;;5009743;28;25154;-76
2023/04/11 08:20:12;;;;;;;9.45;1.63;;;;;;;;;;5003042;28;25152;-75
2023/04/11 08:22:40;;;;;;;6.78;2.15;;;;;;;;;;5003917;28;25075;-76
2023/04/11 08:25:08;;;;;;;11.57;2.50;;;;;;;;;;4997664;28;25135;-75
2023/04/11 08:27:34;;;;;;;7.78;1.80;;;;;;;;;;5008128;28;25106;-77
2023/04/11 08:30:00;;;;;;;13.40;3.08;;;;;;;;;;5004279;28;25078;-77
2023/04/11 08:32:26;;;;;;;8.13;2.13;;;;;;;;;;5004350;28;25056;-75
2023/04/11 08:34:52;;;;;;;13.75;2.15;;;;;;;;;;4987842;28;25064;-72
2023/04/11 08:37:18;;;;;;;19.02;2.45;;;;;;;;;;5000828;28;25126;-76
2023/04/11 08:39:44;;;;;;;11.63;2.35;;;;;;;;;;4995819;28;25082;-73
2023/04/11 08:42:26;;;;;;;15.50;1.88;;;;;;;;;;5012034;28;25056;-78
2023/04/11 08:44:53;;;;;;;13.05;2.20;;;;;;;;;;4993474;28;25069;-76
2023/04/11 08:47:19;;;;;;;5.57;1.20;;;;;;;;;;5002420;28;25072;-79
2023/04/11 08:49:46;;;;;;;7.15;1.95;;;;;;;;;;5000906;28;25071;-71
2023/04/11 08:52:12;;;;;;;16.98;1.90;;;;;;;;;;5001048;28;25099;-73
2023/04/11 08:54:38;;;;;;;15.20;2.08;;;;;;;;;;5003390;28;25059;-79
2023/04/11 08:57:04;;;;;;;10.50;2.05;;;;;;;;;;5011017;28;25064;-75
2023/04/11 08:59:30;;;;;;;12.25;2.03;;;;;;;;;;4982137;28;25110;-77
2023/04/11 09:02:09;;;;;;;9.45;1.67;;;11.70;99.90;;;;;;4999853;28;25074;-74
2023/04/11 09:04:39;;;;;;;5.85;1.75;;;;;;;;;;5008346;28;25066;-75
2023/04/11 09:07:05;;;;;;;7.82;1.40;;;11.40;99.90;;;;;;5003533;28;25070;-76
2023/04/11 09:09:31;;;;;;;8.20;1.77;;;;;;;;;;5000407;28;25106;-75
2023/04/11 09:11:58;;;;;;;6.68;1.80;;;;;;;;;;5006643;28;25153;-76
2023/04/11 09:14:25;;;;;;;15.65;1.70;;;;;;;;;;5008417;28;25086;-78
2023/04/11 09:17:01;;;;;;;12.90;2.25;;;11.40;99.90;;;;;;4991889;28;25094;-76
2023/04/11 09:19:28;;;;;;;11.05;1.38;;;;;;;;;;5000513;28;25145;-78
2023/04/11 09:21:56;;;;;;;6.78;1.30;;;;;;;;;;4985156;28;25128;-78
2023/04/11 09:24:24;;;;;;;6.80;1.45;;;;;;;;;;5014264;28;25048;-78
2023/04/11 09:26:50;;;;;;;15.38;2.35;;;;;;;;;;5011005;28;25062;-74
2023/04/11 09:29:37;;;;;;;10.48;1.50;;;;;;;;;;4988471;28;25058;-77
2023/04/11 09:32:04;;;;;;;11.68;1.67;;;13.00;99.90;;;;;;5000235;28;25143;-77
2023/04/11 09:34:30;;;;;;;8.80;1.58;;;;;;;;;;5001918;28;25072;-75
2023/04/11 09:36:56;;;;;;;9.30;1.67;;;;;;;;;;5000705;28;25104;-77
2023/04/11 09:39:23;;;;;;;4.88;1.45;;;;;;;;;;4994401;28;25072;-76
2023/04/11 09:41:49;;;;;;;11.43;2.00;;;;;;;;;;5008872;28;25071;-74
2023/04/11 09:44:15;;;;;;;4.10;1.55;;;;;;;;;;5006503;28;25087;-77
2023/04/11 09:46:59;;;;;;;5.55;1.35;;;12.30;99.90;;;;;;4982696;28;25091;-73
2023/04/11 09:49:28;;;;;;;5.15;1.63;;;12.30;99.90;;;;;;4995492;28;25062;-77
2023/04/11 09:51:55;;;;;;;5.28;1.48;;;;;;;;;;5005381;28;25089;-77
2023/04/11 09:54:21;;;;;;;4.95;1.75;;;;;;;;;;5007068;28;25061;-74
2023/04/11 09:56:47;;;;;;;6.45;1.42;;;;;;;;;;5002013;28;25100;-77
2023/04/11 09:59:16;;;;;;;13.55;2.05;;;;;;;;;;5004355;28;25064;-76
2023/04/11 10:01:43;;;;;;;9.98;1.75;;;;;;;;;;5002971;28;25098;-72
2023/04/11 10:04:09;;;;;;;7.90;1.30;;;;;;;;;;5003505;28;25152;-76
2023/04/11 10:07:01;;;;;;;4.75;1.60;;;;;;;;;;4999731;28;25072;-73
2023/04/11 10:09:28;;;;;;;11.05;1.63;;;13.10;99.90;;;;;;5004747;28;25060;-74
2023/04/11 10:11:55;;;;;;;6.57;1.50;;;;;;;;;;5004954;28;25065;-76
2023/04/11 10:14:40;;;;;;;9.00;1.67;;;;;;;;;;4995584;28;25078;-75
2023/04/11 10:17:15;;;;;;;9.75;1.95;;;;;;;;;;5004145;28;25055;-74
2023/04/11 10:19:42;;;;;;;5.60;1.15;;;;;;;;;;4996333;28;25097;-76
2023/04/11 10:22:08;;;;;;;9.95;1.60;;;;;;;;;;5004791;28;25089;-74
2023/04/11 10:24:34;;;;;;;13.00;2.20;;;;;;;;;;5003167;28;25091;-79
2023/04/11 10:27:06;;;;;;;3.13;1.55;;;;;;;;;;5003212;28;25133;-74
2023/04/11 10:29:32;;;;;;;10.10;1.97;;;;;;;;;;4981977;28;25066;-74
2023/04/11 10:32:11;;;;;;;9.98;2.25;;;12.60;99.90;;;;;;5009937;28;25075;-74
2023/04/11 10:34:38;;;;;;;6.30;1.50;;;12.80;99.90;;;;;;4997125;28;25062;-73
2023/04/11 10:37:08;;;;;;;16.38;2.88;;;;;;;;;;5006313;28;25083;-76
2023/04/11 10:39:52;;;;;;;6.88;1.33;;;;;;;;;;4995332;28;25078;-72
2023/04/11 10:42:39;;;;;;;7.43;1.75;;;;;;;;;;5004272;28;25105;-73
2023/04/11 10:45:24;;;;;;;10.18;1.55;;;;;;;;;;5005116;28;25075;-76
2023/04/11 10:47:53;;;;;;;7.97;1.88;;;;;;;;;;5009439;28;25131;-73
2023/04/11 10:50:25;;;;;;;8.20;1.73;;;;;;;;;;4998873;28;25053;-77
2023/04/11 10:52:51;;;;;;;7.28;1.98;;;;;;;;;;5003897;28;25096;-76
2023/04/11 10:55:18;;;;;;;6.18;1.63;;;13.30;99.90;;;;;;4983534;28;25089;-73
2023/04/11 10:58:04;;;;;;;7.82;1.92;;;;;;;;;;5011697;28;25078;-73
2023/04/11 11:00:51;;;;;;;4.82;1.33;;;;;;;;;;5009452;28;25068;-78
2023/04/11 11:03:20;;;;;;;9.73;1.52;;;;;;;;;;5018059;28;25061;-74
2023/04/11 11:05:46;;;;;;;8.13;1.25;;;;;;;;;;5027578;28;25064;-75
2023/04/11 11:08:12;;;;;;;7.72;1.42;;;;;;;;;;5019525;28;25090;-75
2023/04/11 11:10:39;;;;;;;7.28;2.28;;;;;;;;;;5013334;28;25096;-77
2023/04/11 11:13:04;;;;;;;5.57;1.38;;;13.70;99.90;;;;;;5002025;28;25073;-75
2023/04/11 11:15:36;;;;;;;8.23;1.80;;;13.90;99.90;;;;;;5025046;28;25070;-73
2023/04/11 11:18:02;;;;;;;13.02;2.17;;;;;;;;;;5023311;28;25138;-76
2023/04/11 11:20:28;;;;;;;8.35;2.15;;;;;;;;;;5022585;28;25106;-71
2023/04/11 11:22:58;;;;;;;13.48;2.10;;;;;;;;;;5011654;28;25096;-76
2023/04/11 11:25:24;;;;;;;5.55;2.25;;;13.90;99.90;;;;;;5003124;28;25067;-73
2023/04/11 11:27:58;;;;;;;9.30;2.03;;;;;;;;;;5003751;28;25118;-75
2023/04/11 11:30:24;;;;;;;5.93;1.65;;;;;;;;;;5011142;28;25133;-74
2023/04/11 11:32:50;;;;;;;12.88;2.20;;;;;;;;;;5010787;28;25141;-77
2023/04/11 11:35:16;;;;;;;4.78;1.90;;;;;;;;;;5002048;28;25049;-72
2023/04/11 11:37:42;;;;;;;4.35;1.65;;;;;;;;;;5011330;28;25067;-76
2023/04/11 11:40:12;;;;;;;9.38;2.35;;;;;;;;;;5006177;28;25097;-77
2023/04/11 11:42:38;;;;;;;13.85;1.98;;;;;;;;;;5003487;28;25051;-74
2023/04/11 11:45:17;;;;;;;6.93;1.77;;;;;;;;;;5008594;28;25056;-76
2023/04/11 11:47:45;;;;;;;9.27;2.08;;;13.70;99.90;;;;;;5008018;28;25049;-72
2023/04/11 11:50:11;;;;;;;9.82;2.28;;;;;;;;;;5011395;28;25050;-75
2023/04/11 11:52:42;;;;;;;10.07;2.13;;;;;;;;;;5010692;28;25069;-72
2023/04/11 11:55:17;;;;;;;14.90;2.03;;;;;;;;;;4995504;28;25093;-77
2023/04/11 11:57:46;;;;;;;7.32;1.90;;;;;;;;;;4999722;28;25151;-73
2023/04/11 12:00:13;;;;;;;10.52;2.08;;;13.60;99.90;;;;;;5009121;28;25071;-74
2023/04/11 12:02:42;;;;;;;10.07;2.65;;;13.60;99.90;;;;;;5005134;28;25140;-75
2023/04/11 12:05:10;;;;;;;13.95;3.15;;;;;;;;;;4986294;28;25059;-74
2023/04/11 12:07:37;;;;;;;8.98;1.60;;;;;;;;;;4984565;28;25054;-75
2023/04/11 12:10:07;;;;;;;8.50;1.90;;;;;;;;;;4988430;28;25065;-76
2023/04/11 12:12:37;;;;;;;10.05;2.20;;;;;;;;;;5003688;28;25120;-75
2023/04/11 12:15:03;;;;;;;10.43;1.60;;;;;;;;;;5010485;28;25058;-73
2023/04/11 12:17:35;;;;;;;11.48;1.65;;;14.50;99.90;;;;;;5006501;28;25061;-74
2023/04/11 12:20:05;;;;;;;8.02;1.50;;;;;;;;;;4998564;28;25141;-73
2023/04/11 12:22:30;;;;;;;3.95;0.80;;;14.90;91.70;;;;;;5005423;28;25077;-74
2023/04/11 12:25:10;;;;;;;6.00;1.05;;;;;;;;;;5000498;28;25050;-75
2023/04/11 12:27:36;;;;;;;6.18;1.20;;;;;;;;;;5002664;28;25095;-73
2023/04/11 12:30:03;;;;;;;5.93;0.98;;;15.20;1.80;;;;;;4996849;28;25106;-73
2023/04/11 12:32:29;;;;;;;8.98;1.40;;;14.70;1.00;;;;;;5006906;28;25074;-73
2023/04/11 12:34:55;;;;;;;4.32;1.20;;;15.20;1.00;;;;;;5009974;28;26198;-74
2023/04/11 12:37:21;;;;;;;2.92;1.10;;;;;;;;;;4994293;28;25227;-75
2023/04/11 12:39:47;;;;;;;5.72;2.10;;;;;;;;;;5004971;28;25075;-76
2023/04/11 12:42:13;;;;;;;7.45;1.20;;;;;;;;;;4986386;28;25162;-74
2023/04/11 12:44:39;;;;;;;9.63;2.30;;;;;;;;;;5006280;28;25137;-74
2023/04/11 12:47:05;;;;;;;5.85;1.83;;;;;;;;;;4999717;28;25069;-75
2023/04/11 12:49:31;;;;;;;7.82;1.65;;;;;;;;;;5003239;28;25063;-73
2023/04/11 12:51:57;;;;;;;6.05;1.42;;;;;;;;;;5006896;28;25064;-73
2023/04/11 12:54:23;;;;;;;6.07;1.38;;;;;;;;;;5006267;28;25155;-73
2023/04/11 12:56:49;;;;;;;4.57;1.30;;;;;;;;;;4999219;28;25134;-72
2023/04/11 12:59:15;;;;;;;4.93;1.20;;;16.40;1.00;;;;;;5006170;28;25127;-72
2023/04/11 13:01:42;;;;;;;6.03;1.17;;;;;;;;;;5004527;28;25093;-73
2023/04/11 13:04:08;;;;;;;5.68;1.40;;;;;;;;;;5002273;28;25123;-72
2023/04/11 13:06:34;;;;;;;9.38;1.60;;;;;;;;;;5005940;28;25072;-72
2023/04/11 13:09:01;;;;;;;5.38;1.85;;;;;;;;;;5003620;28;25085;-71
2023/04/11 13:11:27;;;;;;;3.17;0.90;;;;;;;;;;5002662;28;25148;-73
2023/04/11 13:13:53;;;;;;;4.22;1.30;;;;;;;;;;4991736;28;25055;-77
2023/04/11 13:16:19;;;;;;;5.70;1.27;;;;;;;;;;4994938;28;25150;-75
2023/04/11 13:18:45;;;;;;;4.15;1.23;;;;;;;;;;5004111;28;25085;-75
2023/04/11 13:21:11;;;;;;;4.50;0.90;;;;;;;;;;5005660;28;25071;-73
2023/04/11 13:23:37;;;;;;;5.43;1.05;;;;;;;;;;5002011;28;25104;-76
2023/04/11 13:26:03;;;;;;;5.22;0.90;;;;;;;;;;4981003;28;25055;-73
2023/04/11 13:28:29;;;;;;;4.07;1.00;;;;;;;;;;5006371;28;25058;-73
2023/04/11 13:30:55;;;;;;;4.82;1.40;;;;;;;;;;4998956;28;25066;-74
2023/04/11 13:33:21;;;;;;;4.78;1.05;;;;;;;;;;5006340;28;25149;-73
2023/04/11 13:35:47;;;;;;;6.93;1.00;;;;;;;;;;4996888;28;25050;-76
2023/04/11 13:38:13;;;;;;;2.78;1.05;;;;;;;;;;5004757;28;25087;-75
2023/04/11 13:40:41;;;;;;;3.55;1.23;;;;;;;;;;5003828;28;25062;-75
2023/04/11 13:43:07;;;;;;;6.00;1.80;;;;;;;;;;5003141;28;25081;-74
2023/04/11 13:45:33;;;;;;;3.72;1.10;;;;;;;;;;5007141;28;25083;-72
2023/04/11 13:47:59;;;;;;;6.50;1.17;;;;;;;;;;4989586;28;25066;-72
2023/04/11 13:50:25;;;;;;;3.53;1.10;;;;;;;;;;5006700;28;25084;-76
2023/04/11 13:52:51;;;;;;;7.72;1.40;;;;;;;;;;5006201;28;25083;-75
2023/04/11 13:55:17;;;;;;;4.68;0.93;;;;;;;;;;5001152;28;25129;-75
2023/04/11 13:57:43;;;;;;;6.93;2.22;;;;;;;;;;5007003;28;25168;-74
2023/04/11 14:00:13;;;;;;;4.15;1.17;;;;;;;;;;5001655;28;25095;-76
2023/04/11 14:02:39;;;;;;;9.32;1.40;;;;;;;;;;5004932;28;25074;-75
2023/04/11 14:05:06;;;;;;;4.05;1.10;;;;;;;;;;5006128;28;25075;-75
2023/04/11 14:07:31;;;;;;;3.60;1.00;;;;;;;;;;5007039;28;25145;-76
2023/04/11 14:09:57;;;;;;;7.00;0.80;;;;;;;;;;5004340;28;25086;-74
2023/04/11 14:12:23;;;;;;;8.15;0.80;;;;;;;;;;5001286;28;25062;-75
2023/04/11 14:14:49;;;;;;;6.50;1.15;;;;;;;;;;5005232;28;25101;-76
2023/04/11 14:17:15;;;;;;;6.15;1.48;;;;;;;;;;5003404;28;25068;-75
2023/04/11 14:19:41;;;;;;;6.18;1.15;;;;;;;;;;5004626;28;25079;-76
2023/04/11 14:22:07;;;;;;;4.13;1.10;;;;;;;;;;5007435;28;25066;-76
2023/04/11 14:24:33;;;;;;;6.70;1.50;;;;;;;;;;5001759;28;25070;-78